Terminal Aerodrome Forecast
Issued by NWS

Home | Current Version | Previous Version | Text Only | Print | Product List | Glossary On
Versions: 1 2 3 4 5 6 7 8 9 10 11 12 13 14 15 16 17 18 19 20 21
000
FTUS41 KBUF 121120
TAFIAG
TAF
KIAG 121120Z 1212/1312 28005KT 1SM -SN OVC015
     FM121500 29013G20KT 1SM -SN OVC015
     FM121800 27017G27KT P6SM VCSH OVC035
     FM130200 30018G27KT 1SM -SN BLSN OVC015=

USA.gov is the U.S. government's official web portal to all federal, state and local government web resources and services.